Time;durP1;ratioP1;P1;durP2;ratioP2;P2;SDS_P1;SDS_P2;PMS_P1;PMS_P2;Temp;Humidity;BMP_temperature;BMP_pressure;BME280_temperature;BME280_humidity;BME280_pressure;Samples;Min_cycle;Max_cycle;Signal;HPM_P1;HPM_P2
2021/01/18 00:00:46;;;;;;;8.43;7.18;;;2.10;99.90;;;;;;4896163;29;20658;-79
2021/01/18 00:03:13;;;;;;;6.75;5.80;;;2.10;99.90;;;;;;4893092;29;20215;-79
2021/01/18 00:05:39;;;;;;;7.38;6.72;;;2.10;99.90;;;;;;4895427;29;20341;-79
2021/01/18 00:08:05;;;;;;;7.15;6.40;;;2.00;99.90;;;;;;4892420;29;20705;-78
2021/01/18 00:10:32;;;;;;;7.15;6.55;;;2.00;99.90;;;;;;4892198;29;20248;-79
2021/01/18 00:12:58;;;;;;;10.57;7.30;;;2.00;99.90;;;;;;4893849;29;20211;-78
2021/01/18 00:15:25;;;;;;;8.23;6.93;;;2.00;99.90;;;;;;4900744;23;20629;31
2021/01/18 00:17:52;;;;;;;9.98;7.88;;;1.90;99.90;;;;;;4899701;29;20569;-81
2021/01/18 00:20:21;;;;;;;7.80;6.82;;;1.90;99.90;;;;;;4901477;29;20207;-78
2021/01/18 00:22:48;;;;;;;9.32;7.43;;;1.90;99.90;;;;;;4900126;29;20221;-78
2021/01/18 00:25:16;;;;;;;9.93;6.78;;;1.90;99.90;;;;;;4901362;29;20203;-78
2021/01/18 00:27:43;;;;;;;9.30;6.82;;;1.90;99.90;;;;;;4891393;29;20223;-78
2021/01/18 00:30:11;;;;;;;11.48;8.60;;;2.00;99.90;;;;;;4891890;29;20224;-78
2021/01/18 00:32:39;;;;;;;11.07;7.45;;;2.00;99.90;;;;;;4881962;29;20200;-78
2021/01/18 00:35:07;;;;;;;9.32;7.28;;;2.00;99.90;;;;;;4886576;29;20211;-78
2021/01/18 00:37:40;;;;;;;9.45;7.20;;;2.10;99.90;;;;;;4892486;29;20230;-78
2021/01/18 00:40:07;;;;;;;9.43;6.60;;;2.10;99.90;;;;;;4891695;29;20203;-78
2021/01/18 00:42:34;;;;;;;10.38;7.15;;;2.10;99.90;;;;;;4889611;29;20252;-78
2021/01/18 00:45:00;;;;;;;10.40;5.97;;;2.00;99.90;;;;;;4891244;29;20282;-78
2021/01/18 00:47:26;;;;;;;8.02;5.95;;;2.00;99.90;;;;;;4890282;29;20247;-78
2021/01/18 00:49:52;;;;;;;7.13;5.63;;;2.00;99.90;;;;;;4888683;29;20595;-78
2021/01/18 00:52:18;;;;;;;6.85;5.57;;;2.00;99.90;;;;;;4891300;29;20256;-78
2021/01/18 00:54:45;;;;;;;6.50;5.43;;;2.00;99.90;;;;;;4888964;29;20199;-78
2021/01/18 00:57:11;;;;;;;6.68;4.78;;;1.90;99.90;;;;;;4891095;29;20223;-78
2021/01/18 00:59:37;;;;;;;10.05;6.10;;;1.90;99.90;;;;;;4899152;29;20221;-78
2021/01/18 01:02:04;;;;;;;9.25;5.90;;;1.80;99.90;;;;;;4881099;29;20215;-78
2021/01/18 01:04:30;;;;;;;9.23;5.70;;;1.80;99.90;;;;;;4882485;29;20263;-78
2021/01/18 01:06:56;;;;;;;6.75;5.88;;;1.90;99.90;;;;;;4882112;29;20244;-78
2021/01/18 01:09:22;;;;;;;6.72;5.25;;;1.90;99.90;;;;;;4882105;29;20599;-78
2021/01/18 01:11:50;;;;;;;7.63;5.40;;;1.80;99.90;;;;;;4880740;29;20212;-79
2021/01/18 01:14:16;;;;;;;8.40;6.25;;;1.80;99.90;;;;;;4882550;29;20212;-79
2021/01/18 01:16:43;;;;;;;7.20;5.20;;;1.90;99.90;;;;;;4883372;29;20244;-78
2021/01/18 01:19:09;;;;;;;6.93;5.25;;;1.90;99.90;;;;;;4882411;29;20204;-78
2021/01/18 01:21:36;;;;;;;8.43;6.22;;;2.00;99.90;;;;;;4879914;29;20291;-77
2021/01/18 01:24:02;;;;;;;6.72;5.28;;;1.90;99.90;;;;;;4880586;29;20212;-79
2021/01/18 01:26:28;;;;;;;6.95;5.65;;;2.00;99.90;;;;;;4880390;29;20231;-78
2021/01/18 01:28:55;;;;;;;9.60;6.05;;;2.10;99.90;;;;;;4880354;29;20220;-77
2021/01/18 01:31:22;;;;;;;7.10;5.57;;;2.20;99.90;;;;;;4882380;29;20216;-79
2021/01/18 01:33:48;;;;;;;5.57;4.90;;;2.30;99.90;;;;;;4887407;29;20248;-80
2021/01/18 01:36:14;;;;;;;5.95;4.88;;;2.30;99.90;;;;;;4888084;29;20232;-80
2021/01/18 01:38:40;;;;;;;8.43;7.10;;;2.40;99.90;;;;;;4886039;29;20219;-78
2021/01/18 01:41:06;;;;;;;9.32;7.05;;;2.50;99.90;;;;;;4885508;29;20212;-78
2021/01/18 01:43:33;;;;;;;7.95;6.13;;;2.50;99.90;;;;;;4885302;29;20212;-78
2021/01/18 01:46:00;;;;;;;6.65;5.85;;;2.60;99.90;;;;;;4885291;29;20323;-78
2021/01/18 01:48:26;;;;;;;6.50;5.90;;;2.60;99.90;;;;;;4885610;29;20211;-78
2021/01/18 01:50:53;;;;;;;8.73;6.57;;;2.70;99.90;;;;;;4885616;29;20235;-79
2021/01/18 01:53:24;;;;;;;8.73;7.05;;;2.70;99.90;;;;;;4890518;29;20286;-78
2021/01/18 01:55:50;;;;;;;8.10;6.30;;;2.70;99.90;;;;;;4896127;29;20248;-77
2021/01/18 01:58:17;;;;;;;7.72;6.72;;;2.80;99.90;;;;;;4890833;29;20208;-78
2021/01/18 02:00:43;;;;;;;6.85;5.35;;;2.80;99.90;;;;;;4883738;29;20211;-79
2021/01/18 02:03:12;;;;;;;7.00;5.30;;;2.80;99.90;;;;;;4885951;29;20212;-80
2021/01/18 02:05:39;;;;;;;8.00;5.53;;;2.80;99.90;;;;;;4888159;29;20691;-80
2021/01/18 02:08:07;;;;;;;5.38;4.78;;;2.70;99.90;;;;;;4887684;29;20219;-80
2021/01/18 02:10:35;;;;;;;5.82;5.25;;;2.70;99.90;;;;;;4887909;29;20230;-80
2021/01/18 02:13:02;;;;;;;6.95;5.50;;;2.60;99.90;;;;;;4887231;29;20216;-80
2021/01/18 02:15:41;;;;;;;7.97;5.90;;;2.60;99.90;;;;;;4888174;29;20215;-80
2021/01/18 02:18:21;;;;;;;10.25;6.35;;;2.60;99.90;;;;;;4886761;29;20219;-78
2021/01/18 02:21:23;;;;;;;5.95;5.07;;;2.60;99.90;;;;;;4885855;29;20216;-78
2021/01/18 02:24:30;;;;;;;5.72;5.20;;;2.60;99.90;;;;;;4887718;29;20212;-80
2021/01/18 02:27:20;;;;;;;11.05;5.30;;;2.70;99.90;;;;;;4887457;29;20239;-80
2021/01/18 02:30:05;;;;;;;7.50;5.18;;;2.60;99.90;;;;;;4887270;29;20231;-80
2021/01/18 02:33:10;;;;;;;5.72;4.55;;;2.50;99.90;;;;;;4886479;29;20212;-79
2021/01/18 02:35:55;;;;;;;5.47;4.97;;;2.50;99.90;;;;;;4878805;29;20212;-79
2021/01/18 02:38:27;;;;;;;5.75;5.15;;;2.50;99.90;;;;;;4886055;29;20215;-77
2021/01/18 02:41:10;;;;;;;6.32;5.72;;;2.60;99.90;;;;;;4884129;29;20252;-78
2021/01/18 02:43:44;;;;;;;6.97;6.22;;;2.60;99.90;;;;;;4884453;29;20223;-78
2021/01/18 02:46:14;;;;;;;5.78;5.00;;;2.60;99.90;;;;;;4884638;29;20235;-78
2021/01/18 02:48:41;;;;;;;7.70;4.35;;;2.60;99.90;;;;;;4884311;29;20207;-80
2021/01/18 02:51:11;;;;;;;7.47;4.18;;;2.60;99.90;;;;;;4886571;29;20231;-80
2021/01/18 02:53:38;;;;;;;6.60;5.47;;;2.50;99.90;;;;;;4885301;29;20215;-78
2021/01/18 02:56:05;;;;;;;6.00;5.00;;;2.50;99.90;;;;;;4885042;29;20268;-79
2021/01/18 02:58:36;;;;;;;7.18;5.00;;;2.50;99.90;;;;;;4886438;29;20288;-80
2021/01/18 03:01:09;;;;;;;7.50;6.50;;;2.50;99.90;;;;;;4884870;29;20232;-78
2021/01/18 03:03:46;;;;;;;7.65;5.50;;;2.40;99.90;;;;;;4882746;29;20273;-78
2021/01/18 03:06:19;;;;;;;7.38;5.35;;;2.30;99.90;;;;;;4884254;29;20227;-78
2021/01/18 03:08:51;;;;;;;5.40;4.90;;;2.30;99.90;;;;;;4885299;29;20272;-80
2021/01/18 03:11:21;;;;;;;6.03;4.95;;;2.30;99.90;;;;;;4886007;29;20220;-80
2021/01/18 03:13:52;;;;;;;7.60;6.50;;;2.50;99.90;;;;;;4885631;29;20216;-80
2021/01/18 03:16:22;;;;;;;5.93;5.18;;;2.50;99.90;;;;;;4883881;29;20240;-78
2021/01/18 03:18:50;;;;;;;7.65;6.20;;;2.50;99.90;;;;;;4888602;29;20218;-81
2021/01/18 03:21:18;;;;;;;6.57;5.30;;;2.40;99.90;;;;;;4886612;29;20216;-80
2021/01/18 03:23:45;;;;;;;7.82;5.78;;;2.30;99.90;;;;;;4885641;29;20215;-78
2021/01/18 03:26:12;;;;;;;11.07;7.47;;;2.30;99.90;;;;;;4885014;29;20232;-78
2021/01/18 03:28:39;;;;;;;8.90;7.85;;;2.20;99.90;;;;;;4884393;29;20208;-78
2021/01/18 03:31:05;;;;;;;8.60;6.22;;;2.20;99.90;;;;;;4885050;29;20231;-79
2021/01/18 03:33:31;;;;;;;11.63;7.68;;;2.20;99.90;;;;;;4884413;29;20240;-79
2021/01/18 03:35:58;;;;;;;8.32;6.00;;;2.30;99.90;;;;;;4884303;29;20228;-78
2021/01/18 03:38:25;;;;;;;8.15;7.25;;;2.20;99.90;;;;;;4884759;29;20219;-79
2021/01/18 03:40:52;;;;;;;9.00;8.00;;;2.10;99.90;;;;;;4883679;29;20216;-79
2021/01/18 03:43:20;;;;;;;10.05;7.80;;;2.00;99.90;;;;;;4881832;29;20630;-78
2021/01/18 03:45:46;;;;;;;8.75;6.85;;;2.00;99.90;;;;;;4882442;29;20242;-79
2021/01/18 03:48:13;;;;;;;9.25;7.63;;;2.00;99.90;;;;;;4882640;29;20514;-79
2021/01/18 03:50:41;;;;;;;11.35;7.90;;;2.00;99.90;;;;;;4882153;29;20258;-78
2021/01/18 03:53:08;;;;;;;8.73;6.85;;;2.00;99.90;;;;;;4881278;29;20222;-80
2021/01/18 03:55:35;;;;;;;9.45;7.53;;;2.00;99.90;;;;;;4881566;29;20223;-79
2021/01/18 03:58:01;;;;;;;8.50;6.38;;;1.90;99.90;;;;;;4881445;29;20215;-79
2021/01/18 04:00:29;;;;;;;10.13;8.85;;;2.00;99.90;;;;;;4881103;29;20204;-78
2021/01/18 04:02:56;;;;;;;10.52;7.18;;;2.10;99.90;;;;;;4881655;29;20223;-79
2021/01/18 04:05:23;;;;;;;12.23;9.63;;;2.00;99.90;;;;;;4881278;29;20737;-82
2021/01/18 04:07:50;;;;;;;16.80;8.63;;;1.90;99.90;;;;;;4881678;29;20239;-78
2021/01/18 04:10:18;;;;;;;10.40;8.65;;;2.00;99.90;;;;;;4881408;29;20236;-78
2021/01/18 04:12:47;;;;;;;9.68;6.35;;;2.00;99.90;;;;;;4880909;29;20268;-79
2021/01/18 04:15:14;;;;;;;12.40;8.15;;;2.10;99.90;;;;;;4881410;29;20631;-78
2021/01/18 04:17:41;;;;;;;11.70;8.07;;;2.20;99.90;;;;;;4881401;29;20244;-79
2021/01/18 04:20:08;;;;;;;9.88;7.90;;;2.20;99.90;;;;;;4881365;29;20208;-79
2021/01/18 04:22:34;;;;;;;9.07;8.00;;;2.20;99.90;;;;;;4882155;29;20239;-79
2021/01/18 04:25:01;;;;;;;8.73;6.85;;;2.20;99.90;;;;;;4882346;29;20215;-79
2021/01/18 04:27:27;;;;;;;8.13;6.80;;;2.20;99.90;;;;;;4882603;29;20235;-79
2021/01/18 04:29:54;;;;;;;11.73;7.00;;;2.30;99.90;;;;;;4881203;29;20232;-79
2021/01/18 04:32:20;;;;;;;10.98;8.38;;;2.30;99.90;;;;;;4880773;29;20678;-79
2021/01/18 04:34:46;;;;;;;9.30;7.85;;;2.40;99.90;;;;;;4880578;29;20212;-79
2021/01/18 04:37:13;;;;;;;13.95;8.07;;;2.30;99.90;;;;;;4881217;29;20240;-79
2021/01/18 04:39:40;;;;;;;11.98;8.05;;;2.30;99.90;;;;;;4881097;29;20590;-79
2021/01/18 04:42:06;;;;;;;8.88;6.53;;;2.20;99.90;;;;;;4881102;29;20215;-79
2021/01/18 04:44:33;;;;;;;8.95;7.80;;;2.10;99.90;;;;;;4882931;29;20215;-79
2021/01/18 04:47:01;;;;;;;12.35;8.13;;;2.10;99.90;;;;;;4883531;29;20236;-78
2021/01/18 04:49:28;;;;;;;8.57;7.75;;;2.00;99.90;;;;;;4882745;29;20240;-78
2021/01/18 04:51:56;;;;;;;18.35;10.55;;;1.90;99.90;;;;;;4883814;29;20235;-78
2021/01/18 04:54:23;;;;;;;8.07;6.60;;;2.00;99.90;;;;;;4883815;29;20207;-81
2021/01/18 04:57:12;;;;;;;8.45;6.88;;;2.10;99.90;;;;;;4883097;29;20236;-78
2021/01/18 04:59:40;;;;;;;9.68;8.57;;;2.10;99.90;;;;;;4883061;29;20212;-78
2021/01/18 05:02:09;;;;;;;12.63;8.10;;;2.10;99.90;;;;;;4882798;29;20218;-78
2021/01/18 05:04:39;;;;;;;8.15;7.35;;;2.10;99.90;;;;;;4883358;29;20215;-79
2021/01/18 05:07:40;;;;;;;9.48;7.45;;;2.10;99.90;;;;;;4883153;29;20251;-78
2021/01/18 05:10:08;;;;;;;11.00;8.05;;;2.10;99.90;;;;;;4880758;29;20256;-79
2021/01/18 05:12:37;;;;;;;11.05;7.65;;;2.00;99.90;;;;;;4882864;29;20215;-79
2021/01/18 05:15:04;;;;;;;9.48;6.68;;;1.90;99.90;;;;;;4883247;29;20223;-78
2021/01/18 05:17:40;;;;;;;13.27;7.72;;;1.90;99.90;;;;;;4882484;29;20235;-78
2021/01/18 05:20:08;;;;;;;15.40;6.95;;;1.90;99.90;;;;;;4882754;29;20362;-78
2021/01/18 05:22:34;;;;;;;9.98;7.38;;;1.80;99.90;;;;;;4882433;29;20211;-79
2021/01/18 05:25:01;;;;;;;8.43;7.43;;;1.80;99.90;;;;;;4882110;29;20223;-79
2021/01/18 05:27:27;;;;;;;8.07;7.38;;;1.80;99.90;;;;;;4882593;29;20670;-79
2021/01/18 05:29:55;;;;;;;7.78;6.30;;;1.80;99.90;;;;;;4882444;29;20228;-78
2021/01/18 05:32:23;;;;;;;12.60;7.20;;;1.80;99.90;;;;;;4883572;29;20218;-78
2021/01/18 05:34:50;;;;;;;8.48;7.53;;;1.90;99.90;;;;;;4883719;29;20216;-79
2021/01/18 05:37:17;;;;;;;13.00;7.72;;;1.90;99.90;;;;;;4883163;29;20228;-79
2021/01/18 05:39:43;;;;;;;10.63;7.47;;;1.90;99.90;;;;;;4884660;29;20329;-79
2021/01/18 05:42:19;;;;;;;9.57;6.88;;;1.90;99.90;;;;;;4884270;29;20215;-78
2021/01/18 05:44:45;;;;;;;9.15;6.32;;;1.90;99.90;;;;;;4885147;29;20220;-78
2021/01/18 05:47:14;;;;;;;9.13;8.00;;;1.90;99.90;;;;;;4884476;29;20370;-78
2021/01/18 05:49:42;;;;;;;8.50;7.63;;;1.90;99.90;;;;;;4882259;29;20227;-79
2021/01/18 05:52:27;;;;;;;12.75;7.80;;;1.90;99.90;;;;;;4882277;29;20236;-79
2021/01/18 05:55:15;;;;;;;6.53;5.93;;;1.90;99.90;;;;;;4889133;29;20745;-78
2021/01/18 05:57:45;;;;;;;10.43;7.00;;;1.90;99.90;;;;;;4890586;29;20232;-78
2021/01/18 06:00:13;;;;;;;8.35;6.40;;;1.90;99.90;;;;;;4883966;29;20236;-79
2021/01/18 06:02:46;;;;;;;11.98;8.00;;;1.90;99.90;;;;;;4884367;29;20686;-79
2021/01/18 06:05:14;;;;;;;11.75;6.57;;;2.00;99.90;;;;;;4884432;29;20224;-79
2021/01/18 06:07:41;;;;;;;11.88;8.70;;;2.00;99.90;;;;;;4884749;29;20228;-79
2021/01/18 06:10:08;;;;;;;12.43;8.30;;;1.80;99.90;;;;;;4884396;29;20638;-78
2021/01/18 06:12:37;;;;;;;11.80;7.18;;;1.70;99.90;;;;;;4884572;29;20290;-79
2021/01/18 06:15:08;;;;;;;14.40;9.00;;;1.80;99.90;;;;;;4884536;29;20237;-79
2021/01/18 06:25:57;;;;;;;12.40;8.00;;;1.90;99.90;;;;;;4903422;29;20383;-81
2021/01/18 06:28:25;;;;;;;11.45;8.15;;;2.00;99.90;;;;;;4905969;29;20208;-80
2021/01/18 06:30:55;;;;;;;15.45;7.03;;;2.00;99.90;;;;;;4906145;29;20232;-80
2021/01/18 06:33:35;;;;;;;8.25;7.15;;;2.00;99.90;;;;;;4906304;29;20215;-81
2021/01/18 06:36:14;;;;;;;8.25;7.45;;;1.90;99.90;;;;;;4906286;29;20716;-81
2021/01/18 06:38:41;;;;;;;14.32;9.25;;;1.90;99.90;;;;;;4906173;29;20211;-80
2021/01/18 06:41:08;;;;;;;10.82;8.48;;;1.90;99.90;;;;;;4906048;29;20211;-80
2021/01/18 06:43:35;;;;;;;10.75;7.00;;;1.90;99.90;;;;;;4904563;29;20211;-80
2021/01/18 06:46:15;;;;;;;10.23;7.03;;;1.70;99.90;;;;;;4905395;29;20255;-80
2021/01/18 06:48:42;;;;;;;15.70;8.07;;;1.60;99.90;;;;;;4905746;29;20215;-80
2021/01/18 06:51:14;;;;;;;12.00;8.05;;;1.40;99.90;;;;;;4905292;29;20242;-79
2021/01/18 06:53:42;;;;;;;9.85;6.95;;;1.40;99.90;;;;;;4904777;29;20646;-80
2021/01/18 06:56:35;;;;;;;10.73;7.70;;;1.50;99.90;;;;;;4904530;29;20256;-79
2021/01/18 06:59:04;;;;;;;9.02;6.53;;;1.70;99.90;;;;;;4904689;29;20216;-80
2021/01/18 07:01:32;;;;;;;8.82;5.38;;;1.80;99.90;;;;;;4904525;29;20211;-80
2021/01/18 07:04:06;;;;;;;10.57;6.35;;;1.80;99.90;;;;;;4904996;29;20219;-80
2021/01/18 07:06:34;;;;;;;8.80;7.60;;;1.80;99.90;;;;;;4911328;29;20644;-80
2021/01/18 07:09:02;;;;;;;9.05;7.15;;;1.80;99.90;;;;;;4905190;29;20219;-80
2021/01/18 07:11:30;;;;;;;8.75;6.00;;;1.80;99.90;;;;;;4904815;29;20727;-78
2021/01/18 07:13:56;;;;;;;8.13;6.95;;;1.80;99.90;;;;;;4905116;29;20213;-80
2021/01/18 07:16:24;;;;;;;7.07;5.70;;;1.80;99.90;;;;;;4905450;29;20235;-80
2021/01/18 07:18:54;;;;;;;8.57;7.03;;;1.80;99.90;;;;;;4906063;29;20211;-80
2021/01/18 07:21:22;;;;;;;15.80;8.57;;;1.70;99.90;;;;;;4910075;29;20207;-81
2021/01/18 07:23:54;;;;;;;12.50;7.32;;;1.50;99.90;;;;;;4912427;29;20219;-82
2021/01/18 07:26:56;;;;;;;14.20;7.32;;;1.60;99.90;;;;;;4912409;29;20231;-81
2021/01/18 07:29:24;;;;;;;11.90;6.78;;;1.60;99.90;;;;;;4911341;29;20218;-82
2021/01/18 07:31:53;;;;;;;10.00;5.60;;;1.70;99.90;;;;;;4911051;29;20271;-82
2021/01/18 07:34:22;;;;;;;11.40;6.50;;;1.80;99.90;;;;;;4911061;29;20581;-80
2021/01/18 07:36:49;;;;;;;8.35;5.95;;;1.90;99.90;;;;;;4912503;29;20286;-82
2021/01/18 07:39:27;;;;;;;6.85;4.68;;;1.90;99.90;;;;;;4911645;29;20219;-81
2021/01/18 07:41:54;;;;;;;8.27;6.03;;;2.10;99.90;;;;;;4911261;29;20215;-81
2021/01/18 07:44:41;;;;;;;7.47;4.75;;;2.30;99.90;;;;;;4911149;29;20217;-82
2021/01/18 07:47:09;;;;;;;7.95;4.97;;;2.40;99.90;;;;;;4911530;29;20227;-83
2021/01/18 07:49:38;;;;;;;11.43;5.57;;;2.50;99.90;;;;;;4911849;29;20307;-82
2021/01/18 07:52:30;;;;;;;6.72;5.63;;;2.60;99.90;;;;;;4912358;29;20213;-84
2021/01/18 07:54:59;;;;;;;7.82;5.40;;;2.80;99.90;;;;;;4912001;29;20292;-83
2021/01/18 07:57:41;;;;;;;11.02;5.30;;;2.80;99.90;;;;;;4912665;29;20238;-83
2021/01/18 08:00:27;;;;;;;7.30;5.50;;;2.90;99.90;;;;;;4910120;29;20199;-83
2021/01/18 08:03:18;;;;;;;7.25;5.93;;;2.90;99.90;;;;;;4902256;29;20204;-83
2021/01/18 08:08:40;;;;;;;6.50;6.00;;;2.90;99.90;;;;;;4888008;29;20212;-81
2021/01/18 08:11:16;;;;;;;5.03;4.53;;;3.00;99.90;;;;;;4888628;29;20234;-80
2021/01/18 08:13:48;;;;;;;8.10;4.70;;;3.10;99.90;;;;;;4886848;29;20318;-81
2021/01/18 08:16:20;;;;;;;7.00;5.40;;;3.10;99.90;;;;;;4887063;29;20240;-79
2021/01/18 08:19:09;;;;;;;7.13;5.80;;;3.20;99.90;;;;;;4887230;29;20683;-80
2021/01/18 08:21:59;;;;;;;5.60;4.93;;;3.20;99.90;;;;;;4895987;29;20204;-81
2021/01/18 08:24:53;;;;;;;7.93;5.38;;;3.30;99.90;;;;;;4917309;29;20569;-78
2021/01/18 08:27:40;;;;;;;4.55;4.25;;;3.30;99.90;;;;;;4924728;29;20227;-81
2021/01/18 08:30:28;;;;;;;5.03;4.63;;;3.40;99.90;;;;;;4928499;29;20314;-81
2021/01/18 08:32:56;;;;;;;6.05;4.82;;;3.40;99.90;;;;;;4928447;29;20221;-83
2021/01/18 08:35:28;;;;;;;8.15;3.80;;;3.40;99.90;;;;;;4925207;29;20278;-83
2021/01/18 08:37:56;;;;;;;9.50;4.40;;;3.40;99.90;;;;;;4902844;29;20252;-83
2021/01/18 08:40:30;;;;;;;5.03;4.53;;;3.50;99.90;;;;;;4913362;29;20212;-83
2021/01/18 08:42:57;;;;;;;5.00;4.47;;;3.60;99.90;;;;;;4908912;29;20211;-83
2021/01/18 08:45:26;;;;;;;5.72;4.15;;;3.50;99.90;;;;;;4910348;29;20214;-82
2021/01/18 08:47:55;;;;;;;4.13;3.70;;;3.70;99.90;;;;;;4909421;29;20237;-83
2021/01/18 08:50:26;;;;;;;4.28;3.88;;;3.70;99.90;;;;;;4909616;29;20227;-83
2021/01/18 08:52:54;;;;;;;7.68;4.88;;;3.70;99.90;;;;;;4910507;29;20588;-83
2021/01/18 08:55:52;;;;;;;4.55;3.97;;;3.80;99.90;;;;;;4909411;29;20215;-82
2021/01/18 08:58:36;;;;;;;5.80;4.53;;;3.80;99.90;;;;;;4909822;29;20636;-82
2021/01/18 09:01:15;;;;;;;4.57;4.13;;;3.80;99.90;;;;;;4909805;29;20218;-82
2021/01/18 09:03:41;;;;;;;5.38;3.85;;;3.80;99.90;;;;;;4909190;29;20218;-84
2021/01/18 09:06:09;;;;;;;4.75;4.35;;;3.90;99.90;;;;;;4908879;29;20273;-86
2021/01/18 09:08:36;;;;;;;3.90;3.53;;;3.90;99.90;;;;;;4909395;29;20245;-85
2021/01/18 09:11:05;;;;;;;4.95;4.32;;;3.90;99.90;;;;;;4909907;29;20239;-85
2021/01/18 09:13:33;;;;;;;6.18;5.10;;;4.00;99.90;;;;;;4914140;29;20241;-87
2021/01/18 09:16:03;;;;;;;5.05;4.43;;;4.10;99.90;;;;;;4908873;29;20216;-87
2021/01/18 09:18:30;;;;;;;4.20;3.78;;;4.10;99.90;;;;;;4907114;29;20262;-85
2021/01/18 09:20:58;;;;;;;8.02;5.05;;;4.10;99.90;;;;;;4907216;29;20211;-85
2021/01/18 09:23:25;;;;;;;5.35;4.85;;;4.20;99.90;;;;;;4907914;29;20299;-85
2021/01/18 09:26:00;;;;;;;4.97;3.80;;;4.20;99.90;;;;;;4907281;29;20297;-84
2021/01/18 09:28:27;;;;;;;6.80;4.32;;;4.20;99.90;;;;;;4911886;29;20297;-85
2021/01/18 09:30:53;;;;;;;5.20;4.30;;;4.20;99.90;;;;;;4912412;29;20292;-86
2021/01/18 09:33:20;;;;;;;6.63;5.50;;;4.30;99.90;;;;;;4911460;29;20272;-82
2021/01/18 09:35:47;;;;;;;4.68;4.38;;;4.20;99.90;;;;;;4910042;29;20211;-84
2021/01/18 09:38:14;;;;;;;7.25;4.55;;;4.20;99.90;;;;;;4910825;29;20226;-83
2021/01/18 09:40:42;;;;;;;6.00;5.40;;;4.20;99.90;;;;;;4912279;29;20213;-81
2021/01/18 09:43:10;;;;;;;5.00;4.47;;;4.20;99.90;;;;;;4909957;29;20602;-82
2021/01/18 09:45:37;;;;;;;4.60;4.20;;;4.20;99.90;;;;;;4910256;29;20223;-81
2021/01/18 09:48:05;;;;;;;7.97;4.80;;;4.20;99.90;;;;;;4909328;29;20237;-81
2021/01/18 09:50:32;;;;;;;6.22;4.82;;;4.10;99.90;;;;;;4909577;29;20235;-82
2021/01/18 09:53:04;;;;;;;6.05;4.90;;;4.10;99.90;;;;;;4911836;29;20249;-82
2021/01/18 09:55:32;;;;;;;4.78;4.20;;;3.90;99.90;;;;;;4914531;29;20199;-82
2021/01/18 09:58:07;;;;;;;5.35;4.90;;;4.00;99.90;;;;;;4915095;29;20233;-86
2021/01/18 10:00:40;;;;;;;5.28;4.55;;;4.00;99.90;;;;;;4912062;29;20219;-85
2021/01/18 10:03:09;;;;;;;4.65;3.63;;;3.80;99.90;;;;;;4910514;29;20223;-85
2021/01/18 10:05:39;;;;;;;6.15;3.55;;;3.70;99.90;;;;;;4911361;29;20595;-85
2021/01/18 10:08:12;;;;;;;3.20;2.95;;;3.80;99.90;;;;;;4913791;29;20212;-86
2021/01/18 10:10:43;;;;;;;3.80;3.00;;;3.90;99.90;;;;;;4913991;29;20215;-86
2021/01/18 10:13:17;;;;;;;2.95;2.75;;;4.00;99.90;;;;;;4919278;29;20195;-83
2021/01/18 10:15:44;;;;;;;3.92;3.53;;;4.00;99.90;;;;;;4911266;29;20303;-83
2021/01/18 10:18:29;;;;;;;11.80;3.67;;;4.20;99.90;;;;;;4910309;29;20215;-85
2021/01/18 10:20:56;;;;;;;4.78;2.65;;;4.30;99.90;;;;;;4909584;29;20223;-83
2021/01/18 10:23:23;;;;;;;4.00;3.38;;;4.40;99.90;;;;;;4910982;29;20284;-85
2021/01/18 10:25:50;;;;;;;4.95;3.55;;;4.60;99.90;;;;;;4910658;29;20276;-83
2021/01/18 10:28:20;;;;;;;5.35;4.00;;;4.70;99.90;;;;;;4909182;29;20233;-83
2021/01/18 10:30:47;;;;;;;4.53;2.92;;;4.70;99.90;;;;;;4908542;29;20232;-82
2021/01/18 10:33:19;;;;;;;6.30;4.40;;;4.80;99.90;;;;;;4912827;29;20217;-86
2021/01/18 10:35:46;;;;;;;5.07;4.18;;;4.90;99.90;;;;;;4909192;29;20216;-82
2021/01/18 10:38:20;;;;;;;4.55;3.60;;;4.80;99.90;;;;;;4907342;29;20581;-80
2021/01/18 10:41:04;;;;;;;4.43;4.03;;;4.90;99.90;;;;;;4907368;29;20212;-80
2021/01/18 10:43:31;;;;;;;4.60;4.15;;;4.90;99.90;;;;;;4908024;29;20216;-81
2021/01/18 10:45:58;;;;;;;6.95;4.97;;;4.90;99.90;;;;;;4909129;29;20223;-81
2021/01/18 10:48:29;;;;;;;3.88;3.53;;;5.00;99.90;;;;;;4909029;29;20221;-81
2021/01/18 10:50:57;;;;;;;6.32;5.78;;;4.90;99.90;;;;;;4907911;29;20233;-81
2021/01/18 10:53:28;;;;;;;6.13;3.60;;;5.00;99.90;;;;;;4907911;29;20209;-81
2021/01/18 10:58:55;;;;;;;4.45;3.83;;;5.10;99.90;;;;;;5119231;27;20518;-80
2021/01/18 11:01:22;;;;;;;4.82;4.30;;;5.30;99.90;;;;;;5119726;28;20209;-81
2021/01/18 11:03:48;;;;;;;5.25;4.38;;;5.40;99.90;;;;;;5119260;28;20206;-81
2021/01/18 11:06:16;;;;;;;5.10;3.72;;;5.50;99.90;;;;;;5118802;28;20231;-81
2021/01/18 11:08:42;;;;;;;3.70;3.40;;;5.50;99.90;;;;;;5119231;28;20202;-80
2021/01/18 11:11:19;;;;;;;5.70;5.20;;;5.60;99.90;;;;;;5119219;28;20204;-81
2021/01/18 11:13:46;;;;;;;4.10;3.70;;;5.60;99.90;;;;;;5118823;28;20209;-80
2021/01/18 11:16:14;;;;;;;5.38;3.95;;;5.70;99.90;;;;;;5119610;28;20641;-81
2021/01/18 11:18:41;;;;;;;4.80;3.88;;;5.70;99.90;;;;;;5119145;28;20222;-81
2021/01/18 11:21:08;;;;;;;3.08;2.80;;;5.70;99.90;;;;;;5121248;28;20205;-81
2021/01/18 11:23:34;;;;;;;5.05;3.90;;;5.60;99.90;;;;;;5120902;28;20210;-81
2021/01/18 11:26:00;;;;;;;3.25;3.05;;;5.70;99.90;;;;;;5119622;28;20218;-81
2021/01/18 11:28:26;;;;;;;4.05;3.67;;;5.60;99.90;;;;;;5120396;28;20203;-81
2021/01/18 11:30:53;;;;;;;6.50;3.70;;;5.70;99.90;;;;;;5119753;28;20207;-81
2021/01/18 11:33:20;;;;;;;4.57;4.18;;;5.70;99.90;;;;;;5119425;28;20203;-81
2021/01/18 11:35:47;;;;;;;4.35;4.05;;;5.70;99.90;;;;;;5119818;28;20209;-82
2021/01/18 11:38:14;;;;;;;4.25;3.83;;;5.70;99.90;;;;;;5118977;28;20223;-81
2021/01/18 11:40:40;;;;;;;4.47;4.07;;;5.70;99.90;;;;;;5120426;28;20204;-81
2021/01/18 11:43:07;;;;;;;5.18;4.15;;;5.70;99.90;;;;;;5119863;28;20207;-81
2021/01/18 11:45:33;;;;;;;6.18;4.53;;;5.80;99.90;;;;;;5118802;28;20210;-81
2021/01/18 11:48:00;;;;;;;4.72;3.80;;;5.90;99.90;;;;;;5124023;28;20228;-82
2021/01/18 11:50:26;;;;;;;5.40;4.30;;;5.80;99.90;;;;;;5118589;28;20212;-81
2021/01/18 11:52:54;;;;;;;4.75;3.50;;;5.70;99.90;;;;;;5118705;28;20211;-82
2021/01/18 11:55:20;;;;;;;5.55;4.15;;;5.60;99.90;;;;;;5117486;28;20223;-80
2021/01/18 11:57:48;;;;;;;7.78;4.82;;;5.60;99.90;;;;;;5117859;28;20238;-81
2021/01/18 12:00:18;;;;;;;4.20;3.47;;;5.60;99.90;;;;;;5118121;28;20207;-81
2021/01/18 12:02:44;;;;;;;7.00;3.67;;;5.70;99.90;;;;;;5117800;28;20211;-79
2021/01/18 12:05:12;;;;;;;5.47;4.97;;;5.70;99.90;;;;;;5117198;28;20233;-80
2021/01/18 12:07:38;;;;;;;3.85;3.47;;;5.70;99.90;;;;;;5117598;28;20220;-80
2021/01/18 12:10:06;;;;;;;5.25;3.85;;;5.60;99.90;;;;;;5105621;28;20208;-80
2021/01/18 12:12:35;;;;;;;3.50;3.17;;;5.60;99.90;;;;;;5105290;28;20695;-80
2021/01/18 12:15:01;;;;;;;4.80;3.80;;;5.60;99.90;;;;;;5105092;28;20204;-80
2021/01/18 12:17:27;;;;;;;5.03;3.70;;;5.50;99.90;;;;;;5105444;28;20233;-80
2021/01/18 12:19:54;;;;;;;5.25;3.58;;;5.40;99.90;;;;;;5106489;28;20199;-81
2021/01/18 12:22:21;;;;;;;5.00;3.83;;;5.50;99.90;;;;;;5105784;28;20584;-80
2021/01/18 12:24:47;;;;;;;4.40;4.00;;;5.50;99.90;;;;;;5103444;28;20299;-80
2021/01/18 12:27:13;;;;;;;4.07;3.30;;;5.50;99.90;;;;;;5101953;28;20223;-80
2021/01/18 12:29:39;;;;;;;4.82;3.92;;;5.50;99.90;;;;;;5101318;28;20264;-80
2021/01/18 12:32:06;;;;;;;5.13;4.60;;;5.70;99.90;;;;;;5101230;28;20209;-81
2021/01/18 12:34:32;;;;;;;2.83;2.58;;;5.80;99.90;;;;;;5111211;28;20199;-81
2021/01/18 12:36:58;;;;;;;3.17;2.97;;;5.90;99.90;;;;;;5102676;28;20228;-80
2021/01/18 12:39:26;;;;;;;6.50;3.88;;;5.90;99.90;;;;;;5102874;28;20211;-82
2021/01/18 12:41:52;;;;;;;4.22;3.72;;;5.70;99.90;;;;;;5102307;28;20280;-81
2021/01/18 12:44:19;;;;;;;4.40;3.78;;;5.60;99.90;;;;;;5102419;28;20287;-81
2021/01/18 12:46:46;;;;;;;6.28;5.72;;;5.50;99.90;;;;;;5102278;28;20639;-82
2021/01/18 12:49:13;;;;;;;7.57;4.75;;;5.30;99.90;;;;;;5102415;28;20202;-81
2021/01/18 12:51:39;;;;;;;5.13;3.60;;;5.30;99.90;;;;;;5102411;28;20239;-81
2021/01/18 12:54:05;;;;;;;5.15;3.33;;;5.10;99.90;;;;;;5102718;28;20233;-82
2021/01/18 12:56:33;;;;;;;4.05;3.75;;;5.00;99.90;;;;;;5102665;28;20223;-81
2021/01/18 12:58:59;;;;;;;4.03;3.67;;;4.90;99.90;;;;;;5102791;28;20294;-81
2021/01/18 13:01:30;;;;;;;3.13;2.92;;;4.90;99.90;;;;;;5102060;28;20215;-81
2021/01/18 13:03:56;;;;;;;4.38;3.67;;;4.90;99.90;;;;;;5102705;28;20208;-82
2021/01/18 13:06:30;;;;;;;3.50;2.90;;;4.90;99.90;;;;;;5102499;28;20226;-82
2021/01/18 13:08:57;;;;;;;3.47;2.83;;;4.90;99.90;;;;;;5102310;28;20207;-82
2021/01/18 13:11:23;;;;;;;3.75;3.42;;;4.90;99.90;;;;;;5102328;28;20205;-82
2021/01/18 13:13:50;;;;;;;5.40;3.58;;;4.80;99.90;;;;;;5102073;28;20251;-82
2021/01/18 13:16:17;;;;;;;3.08;2.88;;;4.80;99.90;;;;;;5101830;28;20231;-82
2021/01/18 13:18:44;;;;;;;3.50;3.20;;;4.70;99.90;;;;;;5102198;28;20255;-82
2021/01/18 13:21:14;;;;;;;6.68;4.30;;;4.60;99.90;;;;;;5109612;28;20211;-82
2021/01/18 13:23:40;;;;;;;4.13;3.83;;;4.70;99.90;;;;;;5101620;28;20215;-82